createdAt,value
2018-10-05T00:01:38.963Z,99.90
2018-10-05T00:04:07.046Z,99.90
2018-10-05T00:06:35.221Z,99.90
2018-10-05T00:09:04.455Z,99.90
2018-10-05T00:11:32.509Z,99.90
2018-10-05T00:14:00.599Z,99.90
2018-10-05T00:16:28.660Z,99.90
2018-10-05T00:18:56.768Z,99.90
2018-10-05T00:21:24.856Z,99.90
2018-10-05T00:23:52.927Z,99.90
2018-10-05T00:26:21.050Z,99.90
2018-10-05T00:28:49.199Z,99.90
2018-10-05T00:31:17.287Z,99.90
2018-10-05T00:33:45.352Z,99.90
2018-10-05T00:36:13.456Z,99.90
2018-10-05T00:38:41.665Z,99.90
2018-10-05T00:41:09.726Z,99.90
2018-10-05T00:43:37.808Z,99.90
2018-10-05T00:46:05.915Z,99.90
2018-10-05T00:48:34.020Z,99.90
2018-10-05T00:51:02.112Z,99.90
2018-10-05T00:53:30.224Z,99.90
2018-10-05T00:55:58.262Z,99.90
2018-10-05T00:58:26.348Z,99.90
2018-10-05T01:00:54.416Z,99.90
2018-10-05T01:03:22.502Z,99.90
2018-10-05T01:05:50.571Z,99.90
2018-10-05T01:08:18.647Z,99.90
2018-10-05T01:10:46.747Z,99.90
2018-10-05T01:13:14.811Z,99.90
2018-10-05T01:15:42.851Z,99.90
2018-10-05T01:18:10.929Z,99.90
2018-10-05T01:20:38.995Z,99.90
2018-10-05T01:23:07.073Z,99.90
2018-10-05T01:25:35.162Z,99.90
2018-10-05T01:28:03.219Z,99.90
2018-10-05T01:30:31.306Z,99.90
2018-10-05T01:32:59.502Z,99.90
2018-10-05T01:35:27.615Z,99.90
2018-10-05T01:37:55.764Z,99.90
2018-10-05T01:40:23.930Z,99.90
2018-10-05T01:42:52.020Z,99.90
2018-10-05T01:45:20.152Z,99.90
2018-10-05T01:47:48.248Z,99.90
2018-10-05T01:50:16.315Z,99.90
2018-10-05T01:52:44.399Z,99.90
2018-10-05T01:55:12.471Z,99.90
2018-10-05T01:57:40.611Z,99.90
2018-10-05T02:00:08.744Z,99.90
2018-10-05T02:02:36.836Z,99.90
2018-10-05T02:05:05.153Z,99.90
2018-10-05T02:07:33.293Z,99.90
2018-10-05T02:10:01.414Z,99.90
2018-10-05T02:12:29.600Z,99.90
2018-10-05T02:14:57.696Z,99.90
2018-10-05T02:17:25.785Z,99.90
2018-10-05T02:19:53.943Z,99.90
2018-10-05T02:22:22.051Z,99.90
2018-10-05T02:24:50.156Z,99.70
2018-10-05T02:27:18.260Z,99.80
2018-10-05T02:29:46.409Z,99.90
2018-10-05T02:32:14.507Z,99.90
2018-10-05T02:34:42.584Z,99.90
2018-10-05T02:37:10.698Z,99.90
2018-10-05T02:39:38.783Z,99.90
2018-10-05T02:42:06.871Z,99.80
2018-10-05T02:44:34.976Z,99.50
2018-10-05T02:47:03.040Z,99.30
2018-10-05T02:49:31.101Z,99.10
2018-10-05T02:51:59.219Z,99.20
2018-10-05T02:54:27.319Z,99.10
2018-10-05T02:56:55.388Z,98.90
2018-10-05T02:59:23.476Z,98.80
2018-10-05T03:02:34.029Z,98.80
2018-10-05T03:05:02.080Z,98.60
2018-10-05T03:07:30.980Z,98.60
2018-10-05T03:10:00.394Z,98.40
2018-10-05T03:12:28.787Z,98.30
2018-10-05T03:14:56.880Z,98.20
2018-10-05T03:17:24.964Z,98.20
2018-10-05T03:19:53.058Z,98.00
2018-10-05T03:22:21.198Z,98.00
2018-10-05T03:24:49.303Z,98.00
2018-10-05T03:27:17.451Z,98.00
2018-10-05T03:29:45.573Z,98.00
2018-10-05T03:32:13.680Z,98.00
2018-10-05T03:34:41.872Z,98.00
2018-10-05T03:37:09.947Z,98.20
2018-10-05T03:39:38.040Z,98.10
2018-10-05T03:42:06.165Z,98.20
2018-10-05T03:44:34.262Z,98.30
2018-10-05T03:47:02.315Z,98.30
2018-10-05T03:49:30.410Z,98.10
2018-10-05T03:51:58.517Z,98.40
2018-10-05T03:54:26.830Z,98.30
2018-10-05T03:56:54.954Z,98.20
2018-10-05T03:59:23.052Z,98.10
2018-10-05T04:01:51.152Z,98.00
2018-10-05T04:04:19.224Z,98.20
2018-10-05T04:06:47.318Z,97.90
2018-10-05T04:09:15.440Z,97.90
2018-10-05T04:11:43.601Z,97.70
2018-10-05T04:14:11.725Z,97.70
2018-10-05T04:16:39.845Z,97.40
2018-10-05T04:19:08.108Z,97.30
2018-10-05T04:21:36.189Z,97.50
2018-10-05T04:24:04.397Z,97.70
2018-10-05T04:26:39.436Z,97.50
2018-10-05T04:29:07.541Z,97.60
2018-10-05T04:31:35.629Z,97.70
2018-10-05T04:34:03.733Z,97.90
2018-10-05T04:36:31.817Z,97.60
2018-10-05T04:39:00.416Z,97.60
2018-10-05T04:41:28.481Z,97.70
2018-10-05T04:43:56.553Z,97.30
2018-10-05T04:46:24.628Z,97.50
2018-10-05T04:48:52.697Z,97.30
2018-10-05T04:51:20.775Z,97.30
2018-10-05T04:53:48.852Z,97.10
2018-10-05T04:56:16.913Z,97.20
2018-10-05T04:58:45.036Z,97.00
2018-10-05T05:01:13.135Z,96.70
2018-10-05T05:03:41.244Z,96.80
2018-10-05T05:06:09.466Z,96.80
2018-10-05T05:08:37.562Z,96.60
2018-10-05T05:11:05.843Z,96.40
2018-10-05T05:13:33.989Z,96.20
2018-10-05T05:16:02.086Z,95.90
2018-10-05T05:18:30.311Z,95.50
2018-10-05T05:20:58.606Z,95.30
2018-10-05T05:23:26.767Z,95.50
2018-10-05T05:25:54.862Z,95.50
2018-10-05T05:28:23.008Z,95.60
2018-10-05T05:30:51.338Z,95.60
2018-10-05T05:33:19.501Z,95.70
2018-10-05T05:35:47.646Z,95.30
2018-10-05T05:38:15.718Z,95.10
2018-10-05T05:40:43.836Z,94.90
2018-10-05T05:43:11.899Z,94.70
2018-10-05T05:45:40.015Z,94.60
2018-10-05T05:48:08.332Z,94.30
2018-10-05T05:50:36.448Z,94.70
2018-10-05T05:53:04.593Z,94.30
2018-10-05T05:55:32.693Z,94.60
2018-10-05T05:58:00.796Z,94.40
2018-10-05T06:00:28.894Z,94.20
2018-10-05T06:02:57.006Z,94.20
2018-10-05T06:05:25.139Z,94.40
2018-10-05T06:07:53.306Z,94.50
2018-10-05T06:10:21.512Z,94.50
2018-10-05T06:12:49.644Z,94.40
2018-10-05T06:15:17.870Z,94.40
2018-10-05T06:17:45.936Z,94.30
2018-10-05T06:20:14.067Z,94.20
2018-10-05T06:22:42.260Z,94.20
2018-10-05T06:25:10.409Z,94.40
2018-10-05T06:27:38.482Z,93.90
2018-10-05T06:30:06.616Z,94.00
2018-10-05T06:32:34.687Z,94.50
2018-10-05T06:35:02.808Z,94.30
2018-10-05T06:37:31.100Z,94.10
2018-10-05T06:39:59.623Z,93.10
2018-10-05T06:42:28.327Z,91.50
2018-10-05T06:44:56.648Z,90.10
2018-10-05T06:47:24.909Z,86.90
2018-10-05T06:49:53.015Z,85.30
2018-10-05T06:52:21.424Z,85.00
2018-10-05T06:54:49.533Z,87.40
2018-10-05T06:57:17.982Z,88.80
2018-10-05T06:59:46.079Z,90.10
2018-10-05T07:02:14.268Z,90.40
2018-10-05T07:04:42.334Z,90.70
2018-10-05T07:07:10.423Z,91.30
2018-10-05T07:09:38.543Z,90.80
2018-10-05T07:12:06.640Z,91.30
2018-10-05T07:14:34.783Z,91.40
2018-10-05T07:17:02.960Z,91.70
2018-10-05T07:19:31.029Z,91.90
2018-10-05T07:21:59.106Z,91.80
2018-10-05T07:24:27.188Z,91.60
2018-10-05T07:26:55.270Z,91.20
2018-10-05T07:29:23.361Z,90.90
2018-10-05T07:31:51.464Z,90.80
2018-10-05T07:34:19.543Z,90.30
2018-10-05T07:36:47.832Z,90.00
2018-10-05T07:39:15.900Z,90.20
2018-10-05T07:41:44.017Z,89.60
2018-10-05T07:44:12.136Z,89.00
2018-10-05T07:46:40.217Z,88.80
2018-10-05T07:49:08.411Z,88.50
2018-10-05T07:51:36.642Z,88.30
2018-10-05T07:54:04.673Z,86.60
2018-10-05T07:56:32.744Z,86.50
2018-10-05T07:59:00.860Z,85.20
2018-10-05T08:01:28.956Z,84.00
2018-10-05T08:03:57.058Z,83.20
2018-10-05T08:06:25.232Z,84.00
2018-10-05T08:08:53.366Z,84.70
2018-10-05T08:11:21.436Z,84.30
2018-10-05T08:13:49.490Z,84.10
2018-10-05T08:16:17.608Z,82.90
2018-10-05T08:18:45.708Z,82.30
2018-10-05T08:21:13.854Z,82.10
2018-10-05T08:23:41.907Z,82.00
2018-10-05T08:26:10.031Z,81.70
2018-10-05T08:28:38.106Z,81.00
2018-10-05T08:31:06.218Z,80.90
2018-10-05T08:33:34.323Z,79.80
2018-10-05T08:36:02.486Z,79.30
2018-10-05T08:38:30.598Z,78.50
2018-10-05T08:40:58.772Z,78.40
2018-10-05T08:43:26.860Z,77.70
2018-10-05T08:45:55.044Z,76.50
2018-10-05T08:48:23.163Z,76.70
2018-10-05T08:50:51.287Z,77.80
2018-10-05T08:53:19.444Z,77.00
2018-10-05T08:55:47.655Z,76.40
2018-10-05T08:58:15.757Z,76.20
2018-10-05T09:00:43.957Z,73.70
2018-10-05T09:03:12.073Z,74.30
2018-10-05T09:05:40.180Z,73.40
2018-10-05T09:08:08.353Z,73.30
2018-10-05T09:10:36.454Z,73.20
2018-10-05T09:13:04.575Z,72.10
2018-10-05T09:15:32.680Z,72.00
2018-10-05T09:18:00.796Z,72.20
2018-10-05T09:20:28.928Z,72.00
2018-10-05T09:22:57.024Z,71.70
2018-10-05T09:25:25.116Z,70.70
2018-10-05T09:27:53.186Z,70.80
2018-10-05T09:30:21.353Z,69.10
2018-10-05T09:32:49.484Z,68.00
2018-10-05T09:35:17.588Z,69.60
2018-10-05T09:37:45.754Z,69.30
2018-10-05T09:40:13.897Z,65.70
2018-10-05T09:42:42.024Z,67.40
2018-10-05T09:45:10.216Z,65.40
2018-10-05T09:47:38.310Z,65.40
2018-10-05T09:50:06.411Z,65.80
2018-10-05T09:52:34.539Z,66.40
2018-10-05T09:55:02.608Z,65.80
2018-10-05T09:57:30.721Z,65.20
2018-10-05T09:59:58.978Z,65.10
2018-10-05T10:02:32.404Z,64.50
2018-10-05T10:05:00.838Z,63.60
2018-10-05T10:07:28.947Z,63.30
2018-10-05T10:09:57.045Z,61.90
2018-10-05T10:12:25.174Z,61.90
2018-10-05T10:14:53.292Z,61.90
2018-10-05T10:17:21.400Z,61.90
2018-10-05T10:19:49.536Z,61.50
2018-10-05T10:22:17.660Z,61.40
2018-10-05T10:24:45.738Z,60.20
2018-10-05T10:27:13.858Z,61.10
2018-10-05T10:29:41.948Z,61.70
2018-10-05T10:32:10.018Z,61.40
2018-10-05T10:34:38.261Z,60.90
2018-10-05T10:37:06.214Z,60.30
2018-10-05T10:39:34.288Z,60.00
2018-10-05T10:42:02.315Z,59.60
2018-10-05T10:44:30.440Z,58.70
2018-10-05T10:46:58.581Z,58.40
2018-10-05T10:49:26.706Z,59.20
2018-10-05T10:51:54.778Z,58.00
2018-10-05T10:54:22.933Z,58.60
2018-10-05T10:56:51.000Z,58.60
2018-10-05T10:59:19.074Z,57.10
2018-10-05T11:01:47.176Z,57.90
2018-10-05T11:04:15.385Z,58.20
2018-10-05T11:06:43.542Z,57.90
2018-10-05T11:09:11.603Z,57.40
2018-10-05T11:11:39.788Z,57.70
2018-10-05T11:14:07.943Z,58.10
2018-10-05T11:16:36.116Z,56.40
2018-10-05T11:19:04.227Z,56.20
2018-10-05T11:21:32.285Z,56.20
2018-10-05T11:24:00.348Z,56.80
2018-10-05T11:26:28.445Z,56.40
2018-10-05T11:28:56.558Z,56.50
2018-10-05T11:31:24.622Z,56.10
2018-10-05T11:33:52.869Z,55.90
2018-10-05T11:36:21.026Z,55.80
2018-10-05T11:38:49.224Z,55.40
2018-10-05T11:41:17.319Z,55.10
2018-10-05T11:43:45.464Z,54.80
2018-10-05T11:46:13.566Z,55.20
2018-10-05T11:48:41.683Z,55.10
2018-10-05T11:51:09.752Z,55.00
2018-10-05T11:53:37.926Z,55.40
2018-10-05T11:56:06.042Z,55.50
2018-10-05T11:58:34.101Z,54.90
2018-10-05T12:01:02.200Z,54.40
2018-10-05T12:03:30.454Z,53.80
2018-10-05T12:05:58.523Z,54.40
2018-10-05T12:08:26.624Z,54.80
2018-10-05T12:10:54.988Z,55.10
2018-10-05T12:13:23.158Z,54.20
2018-10-05T12:15:51.230Z,53.40
2018-10-05T12:18:19.265Z,53.00
2018-10-05T12:20:47.384Z,54.00
2018-10-05T12:23:15.490Z,53.80
2018-10-05T12:25:43.568Z,53.70
2018-10-05T12:28:11.652Z,53.10
2018-10-05T12:30:39.784Z,52.50
2018-10-05T12:33:07.898Z,52.10
2018-10-05T12:35:35.981Z,52.20
2018-10-05T12:38:04.112Z,52.40
2018-10-05T12:40:32.207Z,52.10
2018-10-05T12:43:00.368Z,52.80
2018-10-05T12:45:28.432Z,53.50
2018-10-05T12:47:56.580Z,52.70
2018-10-05T12:50:24.651Z,52.70
2018-10-05T12:52:52.707Z,52.30
2018-10-05T12:55:20.980Z,52.10
2018-10-05T12:57:49.088Z,52.00
2018-10-05T13:00:17.261Z,52.20
2018-10-05T13:02:45.337Z,51.80
2018-10-05T13:05:13.490Z,51.30
2018-10-05T13:07:41.618Z,51.80
2018-10-05T13:10:09.735Z,51.60
2018-10-05T13:12:37.853Z,51.70
2018-10-05T13:15:06.038Z,51.20
2018-10-05T13:17:34.155Z,51.30
2018-10-05T13:20:02.211Z,52.00
2018-10-05T13:22:30.302Z,51.40
2018-10-05T13:24:58.389Z,51.50
2018-10-05T13:27:26.531Z,51.50
2018-10-05T13:29:54.650Z,51.20
2018-10-05T13:32:22.758Z,51.30
2018-10-05T13:34:50.953Z,51.80
2018-10-05T13:37:19.113Z,51.60
2018-10-05T13:39:47.194Z,51.80
2018-10-05T13:42:15.441Z,51.60
2018-10-05T13:44:43.519Z,52.00
2018-10-05T13:47:11.621Z,51.90
2018-10-05T13:49:39.695Z,52.30
2018-10-05T13:52:07.798Z,52.70
2018-10-05T13:54:35.901Z,51.90
2018-10-05T13:57:03.968Z,52.80
2018-10-05T13:59:32.104Z,52.30
2018-10-05T14:02:00.187Z,52.60
2018-10-05T14:04:28.342Z,52.90
2018-10-05T14:06:56.427Z,52.00
2018-10-05T14:09:24.497Z,52.30
2018-10-05T14:11:52.569Z,51.40
2018-10-05T14:14:20.659Z,49.80
2018-10-05T14:16:48.809Z,49.40
2018-10-05T14:19:16.972Z,49.20
2018-10-05T14:21:45.127Z,50.50
2018-10-05T14:24:13.178Z,50.20
2018-10-05T14:26:41.303Z,50.30
2018-10-05T14:29:09.399Z,51.00
2018-10-05T14:31:37.602Z,51.40
2018-10-05T14:34:05.682Z,51.70
2018-10-05T14:36:33.808Z,51.80
2018-10-05T14:39:01.975Z,51.90
2018-10-05T14:41:30.207Z,52.40
2018-10-05T14:43:58.569Z,52.60
2018-10-05T14:46:26.678Z,53.50
2018-10-05T14:48:54.828Z,53.50
2018-10-05T14:51:22.958Z,53.60
2018-10-05T14:53:51.048Z,53.90
2018-10-05T14:56:19.427Z,54.30
2018-10-05T14:58:47.657Z,54.60
2018-10-05T15:01:15.966Z,54.20
2018-10-05T15:03:44.256Z,54.00
2018-10-05T15:06:12.374Z,53.90
2018-10-05T15:08:40.536Z,54.40
2018-10-05T15:11:08.682Z,55.00
2018-10-05T15:13:36.772Z,55.40
2018-10-05T15:16:04.879Z,55.40
2018-10-05T15:18:33.003Z,55.30
2018-10-05T15:21:01.232Z,55.80
2018-10-05T15:23:29.335Z,56.10
2018-10-05T15:25:57.545Z,56.20
2018-10-05T15:28:25.686Z,56.60
2018-10-05T15:30:53.769Z,56.80
2018-10-05T15:33:21.859Z,56.70
2018-10-05T15:35:50.370Z,56.70
2018-10-05T15:38:18.423Z,57.40
2018-10-05T15:40:46.495Z,57.00
2018-10-05T15:43:14.652Z,57.20
2018-10-05T15:45:42.725Z,57.10
2018-10-05T15:48:10.808Z,57.40
2018-10-05T15:50:38.891Z,57.50
2018-10-05T15:53:07.076Z,57.60
2018-10-05T15:55:35.226Z,57.80
2018-10-05T15:58:03.322Z,57.70
2018-10-05T16:00:31.398Z,58.00
2018-10-05T16:02:59.487Z,57.80
2018-10-05T16:05:27.552Z,58.00
2018-10-05T16:07:55.675Z,58.50
2018-10-05T16:10:23.782Z,59.10
2018-10-05T16:12:51.962Z,59.20
2018-10-05T16:15:19.980Z,60.40
2018-10-05T16:17:48.067Z,59.70
2018-10-05T16:20:16.173Z,60.00
2018-10-05T16:22:45.897Z,60.40
2018-10-05T16:25:14.016Z,60.90
2018-10-05T16:27:42.191Z,61.00
2018-10-05T16:30:10.836Z,61.40
2018-10-05T16:32:39.029Z,61.80
2018-10-05T16:35:07.232Z,61.80
2018-10-05T16:37:35.402Z,62.20
2018-10-05T16:40:03.472Z,62.60
2018-10-05T16:42:31.596Z,62.70
2018-10-05T16:44:59.669Z,62.70
2018-10-05T16:47:27.835Z,64.10
2018-10-05T16:49:55.994Z,63.50
2018-10-05T16:52:25.188Z,64.00
2018-10-05T16:54:53.344Z,64.20
2018-10-05T16:57:21.504Z,64.70
2018-10-05T16:59:49.614Z,64.80
2018-10-05T17:02:17.738Z,66.30
2018-10-05T17:04:45.779Z,65.20
2018-10-05T17:07:13.960Z,65.30
2018-10-05T17:09:42.046Z,65.50
2018-10-05T17:12:10.205Z,66.20
2018-10-05T17:14:38.328Z,65.80
2018-10-05T17:17:06.782Z,66.00
2018-10-05T17:19:34.831Z,66.00
2018-10-05T17:22:02.907Z,66.20
2018-10-05T17:24:31.017Z,66.60
2018-10-05T17:26:59.092Z,67.00
2018-10-05T17:29:27.314Z,67.40
2018-10-05T17:31:55.372Z,67.80
2018-10-05T17:34:23.486Z,68.30
2018-10-05T17:36:51.600Z,68.60
2018-10-05T17:39:19.679Z,69.40
2018-10-05T17:41:47.851Z,69.70
2018-10-05T17:44:15.983Z,70.10
2018-10-05T17:46:44.046Z,70.40
2018-10-05T17:49:12.142Z,71.20
2018-10-05T17:51:40.506Z,70.60
2018-10-05T17:54:08.613Z,71.30
2018-10-05T17:56:36.740Z,71.90
2018-10-05T17:59:04.852Z,72.40
2018-10-05T18:01:32.977Z,72.50
2018-10-05T18:04:01.148Z,72.70
2018-10-05T18:06:29.286Z,72.80
2018-10-05T18:08:57.598Z,72.70
2018-10-05T18:11:25.842Z,72.70
2018-10-05T18:13:53.948Z,72.70
2018-10-05T18:16:22.046Z,72.80
2018-10-05T18:18:50.215Z,73.10
2018-10-05T18:21:18.328Z,73.20
2018-10-05T18:23:46.460Z,73.20
2018-10-05T18:26:14.621Z,73.20
2018-10-05T18:28:42.723Z,73.00
2018-10-05T18:31:10.816Z,73.10
2018-10-05T18:33:38.987Z,72.70
2018-10-05T18:36:07.028Z,72.60
2018-10-05T18:38:35.204Z,72.60
2018-10-05T18:41:03.350Z,72.70
2018-10-05T18:43:32.307Z,72.70
2018-10-05T18:46:00.491Z,72.80
2018-10-05T18:48:28.692Z,73.10
2018-10-05T18:50:56.852Z,73.20
2018-10-05T18:53:24.963Z,73.50
2018-10-05T18:55:53.136Z,73.50
2018-10-05T18:58:21.249Z,74.00
2018-10-05T19:00:49.335Z,74.30
2018-10-05T19:03:17.456Z,74.40
2018-10-05T19:05:45.574Z,74.20
2018-10-05T19:08:13.680Z,74.40
2018-10-05T19:10:41.808Z,74.70
2018-10-05T19:13:09.921Z,74.40
2018-10-05T19:15:38.067Z,75.00
2018-10-05T19:18:06.352Z,74.50
2018-10-05T19:20:34.428Z,74.30
2018-10-05T19:23:02.618Z,74.40
2018-10-05T19:25:30.715Z,74.40
2018-10-05T19:27:58.913Z,74.40
2018-10-05T19:30:27.014Z,74.10
2018-10-05T19:32:55.182Z,74.40
2018-10-05T19:35:23.270Z,74.70
2018-10-05T19:37:51.408Z,74.80
2018-10-05T19:40:19.623Z,75.30
2018-10-05T19:42:47.733Z,75.50
2018-10-05T19:45:15.880Z,75.90
2018-10-05T19:47:43.976Z,75.90
2018-10-05T19:50:12.048Z,76.00
2018-10-05T19:52:40.114Z,76.40
2018-10-05T19:55:08.219Z,76.20
2018-10-05T19:57:36.352Z,76.40
2018-10-05T20:00:04.499Z,76.30
2018-10-05T20:02:32.676Z,76.70
2018-10-05T20:05:00.804Z,76.70
2018-10-05T20:07:29.008Z,77.60
2018-10-05T20:09:57.171Z,77.60
2018-10-05T20:12:25.227Z,77.90
2018-10-05T20:14:53.365Z,78.30
2018-10-05T20:17:21.467Z,78.80
2018-10-05T20:19:49.570Z,79.00
2018-10-05T20:22:17.716Z,79.10
2018-10-05T20:24:45.824Z,79.30
2018-10-05T20:27:14.001Z,79.60
2018-10-05T20:29:42.077Z,80.60
2018-10-05T20:32:10.185Z,80.10
2018-10-05T20:34:38.289Z,80.40
2018-10-05T20:37:06.612Z,80.70
2018-10-05T20:39:34.623Z,81.00
2018-10-05T20:42:02.697Z,81.10
2018-10-05T20:44:30.815Z,80.80
2018-10-05T20:46:58.892Z,80.40
2018-10-05T20:49:27.048Z,80.50
2018-10-05T20:51:55.131Z,80.80
2018-10-05T20:54:23.257Z,80.90
2018-10-05T20:56:51.328Z,81.00
2018-10-05T20:59:19.437Z,81.10
2018-10-05T21:01:47.818Z,81.30
2018-10-05T21:04:15.979Z,81.40
2018-10-05T21:06:44.233Z,81.50
2018-10-05T21:09:12.503Z,81.50
2018-10-05T21:11:40.855Z,81.00
2018-10-05T21:14:09.090Z,81.70
2018-10-05T21:16:37.476Z,81.60
2018-10-05T21:19:05.958Z,82.10
2018-10-05T21:21:34.128Z,81.90
2018-10-05T21:24:02.342Z,82.10
2018-10-05T21:26:30.438Z,82.30
2018-10-05T21:28:58.591Z,82.50
2018-10-05T21:31:26.727Z,82.60
2018-10-05T21:33:54.815Z,82.70
2018-10-05T21:36:22.950Z,82.70
2018-10-05T21:38:51.143Z,83.20
2018-10-05T21:41:19.327Z,83.60
2018-10-05T21:43:47.443Z,83.70
2018-10-05T21:46:15.570Z,83.70
2018-10-05T21:48:43.649Z,84.10
2018-10-05T21:51:11.753Z,84.30
2018-10-05T21:53:39.911Z,84.30
2018-10-05T21:56:08.075Z,84.50
2018-10-05T21:58:36.142Z,85.20
2018-10-05T22:01:04.279Z,85.50
2018-10-05T22:03:32.485Z,85.90
2018-10-05T22:06:00.614Z,86.30
2018-10-05T22:08:28.696Z,86.60
2018-10-05T22:10:56.774Z,86.80
2018-10-05T22:13:24.871Z,86.80
2018-10-05T22:15:53.020Z,86.70
2018-10-05T22:18:21.089Z,87.20
2018-10-05T22:20:49.243Z,88.00
2018-10-05T22:23:17.447Z,87.40
2018-10-05T22:25:45.641Z,87.30
2018-10-05T22:28:13.814Z,87.40
2018-10-05T22:30:41.995Z,87.40
2018-10-05T22:33:10.082Z,87.60
2018-10-05T22:35:38.340Z,87.90
2018-10-05T22:38:06.401Z,87.60
2018-10-05T22:40:34.537Z,87.50
2018-10-05T22:43:02.630Z,87.70
2018-10-05T22:45:30.740Z,88.00
2018-10-05T22:47:58.818Z,88.00
2018-10-05T22:50:26.980Z,88.20
2018-10-05T22:52:55.060Z,88.10
2018-10-05T22:55:23.221Z,87.90
2018-10-05T22:57:51.339Z,87.60
2018-10-05T23:00:19.453Z,87.90
2018-10-05T23:02:47.536Z,87.90
2018-10-05T23:05:15.656Z,88.10
2018-10-05T23:07:44.381Z,88.60
2018-10-05T23:10:12.446Z,88.70
2018-10-05T23:12:40.647Z,88.80
2018-10-05T23:15:08.756Z,89.10
2018-10-05T23:17:36.904Z,90.20
2018-10-05T23:20:05.001Z,90.10
2018-10-05T23:22:33.074Z,90.20
2018-10-05T23:25:01.175Z,90.10
2018-10-05T23:27:29.295Z,90.20
2018-10-05T23:29:57.460Z,90.20
2018-10-05T23:32:25.547Z,90.30
2018-10-05T23:34:53.683Z,90.20
2018-10-05T23:37:21.777Z,90.30
2018-10-05T23:39:49.861Z,90.30
2018-10-05T23:42:18.006Z,90.40
2018-10-05T23:44:46.207Z,90.40
2018-10-05T23:47:14.352Z,90.40
2018-10-05T23:49:42.467Z,90.60
2018-10-05T23:52:21.993Z,90.80
2018-10-05T23:54:50.116Z,90.70
2018-10-05T23:57:18.231Z,90.80
2018-10-05T23:59:46.303Z,91.00
